createdAt,value
2022-12-06T11:56:34.148Z,51.111237
2022-12-06T11:57:34.195Z,51.111279
2022-12-06T11:58:34.192Z,51.111275
2022-12-06T11:59:34.024Z,51.111259
2022-12-06T12:00:34.075Z,51.111244
2022-12-06T12:01:34.074Z,51.111252
2022-12-06T12:02:34.196Z,51.111248
2022-12-06T12:03:34.170Z,51.111256
2022-12-06T12:04:34.005Z,51.111259
2022-12-06T12:05:34.176Z,51.111282
2022-12-06T12:06:34.057Z,51.111256
2022-12-06T12:07:34.204Z,51.111256
2022-12-06T12:08:34.085Z,51.111240
2022-12-06T12:09:34.610Z,51.111259
2022-12-06T12:10:34.055Z,51.111256
2022-12-06T12:11:34.041Z,51.111256
2022-12-06T12:12:34.018Z,51.111240
2022-12-06T12:13:34.041Z,51.111279
2022-12-06T12:14:34.100Z,51.111279
2022-12-06T12:15:34.204Z,51.111294
2022-12-06T12:16:34.077Z,51.111279
2022-12-06T12:17:34.038Z,51.111256
2022-12-06T12:18:33.994Z,51.111263
2022-12-06T12:19:33.983Z,51.111259
2022-12-06T12:20:34.104Z,51.111271
2022-12-06T12:21:33.992Z,51.111252
2022-12-06T12:22:35.021Z,51.111233
2022-12-06T12:23:33.873Z,51.111229
2022-12-06T12:24:38.327Z,51.111240
2022-12-06T12:25:34.916Z,51.111267
2022-12-06T12:26:33.903Z,51.111263
2022-12-06T12:27:33.818Z,51.111298
2022-12-06T12:28:34.093Z,51.111252
2022-12-06T12:29:33.939Z,51.111233
2022-12-06T12:30:33.799Z,51.111240
2022-12-06T12:31:33.834Z,51.111267
2022-12-06T12:32:34.127Z,51.111217
2022-12-06T12:33:33.749Z,51.111279
2022-12-06T12:34:34.762Z,51.111271
2022-12-06T12:35:33.789Z,51.111240
2022-12-06T12:36:34.024Z,51.111221
2022-12-06T12:37:33.882Z,51.111198
2022-12-06T12:38:33.909Z,51.111195
2022-12-06T12:39:33.850Z,51.111195
2022-12-06T12:40:33.826Z,51.111210
2022-12-06T12:41:33.939Z,51.111225
2022-12-06T12:42:33.887Z,51.111217
2022-12-06T12:43:33.818Z,51.111183
2022-12-06T12:44:38.422Z,51.111172
2022-12-06T12:45:35.881Z,51.111198
2022-12-06T12:46:33.839Z,51.111240
2022-12-06T12:47:33.836Z,51.111217
2022-12-06T12:48:33.779Z,51.111195
2022-12-06T12:49:33.806Z,51.111172
2022-12-06T12:50:33.833Z,51.111237
2022-12-06T12:51:33.829Z,51.111244
2022-12-06T12:52:33.793Z,51.111221
2022-12-06T12:53:36.186Z,51.111206
2022-12-06T12:54:33.639Z,51.111221
2022-12-06T12:55:33.631Z,51.111210
2022-12-06T12:56:33.689Z,51.111214
2022-12-06T12:57:33.661Z,51.111217
2022-12-06T12:58:36.184Z,51.111198
2022-12-06T12:59:34.676Z,51.111195
2022-12-06T13:00:33.665Z,51.111263
2022-12-06T13:01:33.667Z,51.111217
2022-12-06T13:02:33.747Z,51.111221
2022-12-06T13:04:35.592Z,51.111206
2022-12-06T13:05:35.001Z,51.111210
2022-12-06T13:06:34.607Z,51.111206
2022-12-06T13:07:33.671Z,51.111187
2022-12-06T13:08:33.677Z,51.111179
2022-12-06T13:09:33.634Z,51.111195
2022-12-06T13:10:33.657Z,51.111176
2022-12-06T13:11:33.599Z,51.111168
2022-12-06T13:12:33.699Z,51.111172
2022-12-06T13:13:33.641Z,51.111176
2022-12-06T13:14:33.694Z,51.111176
2022-12-06T13:15:33.632Z,51.111176
2022-12-06T13:16:33.714Z,51.111164
2022-12-06T13:17:33.669Z,51.111217
2022-12-06T13:18:33.577Z,51.111229
2022-12-06T13:19:33.682Z,51.111202
2022-12-06T13:20:33.506Z,51.111183
2022-12-06T13:21:33.589Z,51.111187
2022-12-06T13:22:33.585Z,51.111153
2022-12-06T13:23:33.448Z,51.111130
2022-12-06T13:24:33.486Z,51.111176
2022-12-06T13:25:33.558Z,51.111221
2022-12-06T13:26:33.557Z,51.111240
2022-12-06T13:27:33.566Z,51.111221
2022-12-06T13:28:33.445Z,51.111221
2022-12-06T13:29:33.512Z,51.111252
2022-12-06T13:30:33.547Z,51.111252
2022-12-06T13:31:33.596Z,51.111210
2022-12-06T13:32:33.506Z,51.111206
2022-12-06T13:33:33.468Z,51.111198
2022-12-06T13:34:37.647Z,51.111195
2022-12-06T13:35:34.463Z,51.111183
2022-12-06T13:36:33.546Z,51.111187
2022-12-06T13:37:34.657Z,51.111179
2022-12-06T13:38:33.436Z,51.111172
2022-12-06T13:39:33.382Z,51.111172
2022-12-06T13:40:33.443Z,51.111179
2022-12-06T13:41:33.302Z,51.111172
2022-12-06T13:42:33.329Z,51.111172
2022-12-06T13:43:38.055Z,51.111179
2022-12-06T13:44:35.413Z,51.111179
2022-12-06T13:45:33.292Z,51.111172
2022-12-06T13:46:33.481Z,51.111153
2022-12-06T13:47:33.326Z,51.111164
2022-12-06T13:48:33.415Z,51.111168
2022-12-06T13:49:38.558Z,51.111145
2022-12-06T13:50:35.288Z,51.111141
2022-12-06T13:51:33.403Z,51.111160
2022-12-06T13:52:33.325Z,51.111214
2022-12-06T13:53:33.581Z,51.111252
2022-12-06T13:54:33.305Z,51.111187
2022-12-06T13:55:33.301Z,51.111164
2022-12-06T13:56:33.288Z,51.111214
2022-12-06T13:57:33.311Z,51.111256
2022-12-06T13:58:33.390Z,51.111210
2022-12-06T13:59:33.452Z,51.111214
2022-12-06T14:00:33.304Z,51.111202
2022-12-06T14:01:38.312Z,51.111221
2022-12-06T14:02:35.315Z,51.111214
2022-12-06T14:03:33.154Z,51.111237
2022-12-06T14:07:59.186Z,51.111244
2022-12-06T14:08:59.097Z,51.111248
2022-12-06T14:09:59.306Z,51.111259
2022-12-06T14:10:59.114Z,51.111271
2022-12-06T14:11:59.205Z,51.111271
2022-12-06T14:12:59.017Z,51.111286
2022-12-06T14:13:59.112Z,51.111229
2022-12-06T14:14:59.071Z,51.111256
2022-12-06T14:15:58.998Z,51.111256
2022-12-06T14:16:59.220Z,51.111271
2022-12-06T14:18:04.415Z,51.111233
2022-12-06T14:19:01.102Z,51.111263
2022-12-06T14:19:59.403Z,51.111282
2022-12-06T14:20:59.253Z,51.111286
2022-12-06T14:21:58.936Z,51.111275
2022-12-06T14:22:58.972Z,51.111267
2022-12-06T14:24:00.352Z,51.111267
2022-12-06T14:24:59.930Z,51.111252
2022-12-06T14:25:58.838Z,51.111267
2022-12-06T14:26:58.915Z,51.111282
2022-12-06T14:27:58.782Z,51.111271
2022-12-06T14:28:58.937Z,51.111252
2022-12-06T14:29:59.234Z,51.111263
2022-12-06T14:30:59.122Z,51.111279
2022-12-06T14:31:58.884Z,51.111298
2022-12-06T14:32:58.924Z,51.111301
2022-12-06T14:33:59.017Z,51.111305
2022-12-06T14:34:58.983Z,51.111298
2022-12-06T14:35:58.894Z,51.111298
2022-12-06T14:36:59.009Z,51.111294
2022-12-06T14:37:58.884Z,51.111275
2022-12-06T14:38:58.915Z,51.111298
2022-12-06T14:40:07.247Z,51.111313
2022-12-06T14:41:01.183Z,51.111305
2022-12-06T14:41:58.880Z,51.111298
2022-12-06T14:42:58.855Z,51.111301
2022-12-06T14:43:58.840Z,51.111279
2022-12-06T14:45:02.365Z,51.111290
2022-12-06T14:45:59.797Z,51.111290
2022-12-06T14:46:58.717Z,51.111328
2022-12-06T14:47:58.772Z,51.111282
2022-12-06T14:48:58.686Z,51.111290
2022-12-06T14:49:58.977Z,51.111294
2022-12-06T14:50:58.663Z,51.111328
2022-12-06T14:51:58.672Z,51.111286
2022-12-06T14:52:58.705Z,51.111282
2022-12-06T14:53:58.769Z,51.111301
2022-12-06T14:54:58.779Z,51.111286
2022-12-06T14:55:58.708Z,51.111290
2022-12-06T14:56:58.692Z,51.111282
2022-12-06T14:57:59.248Z,51.111259
2022-12-06T14:58:58.730Z,51.111313
2022-12-06T15:00:26.424Z,51.111313
2022-12-06T15:01:00.731Z,51.111320
2022-12-06T15:01:58.656Z,51.111275
2022-12-06T15:02:58.871Z,51.111286
2022-12-06T15:03:58.816Z,51.111286
2022-12-06T15:04:58.521Z,51.111320
2022-12-06T15:05:58.620Z,51.111324
2022-12-06T15:06:58.662Z,51.111317
2022-12-06T15:07:58.638Z,51.111317
2022-12-06T15:08:58.670Z,51.111324
2022-12-06T15:09:58.964Z,51.111328
2022-12-06T15:10:58.644Z,51.111317
2022-12-06T15:11:58.606Z,51.111340
2022-12-06T15:12:58.623Z,51.111317
2022-12-06T15:42:31.497Z,51.111282
2022-12-06T15:43:31.580Z,51.111298
